createdAt,value
2019-03-10T00:00:48.028Z,13.33
2019-03-10T00:03:18.668Z,13.87
2019-03-10T00:05:50.937Z,14.20
2019-03-10T00:08:21.645Z,14.90
2019-03-10T00:10:52.294Z,12.80
2019-03-10T00:13:23.021Z,12.50
2019-03-10T00:15:53.671Z,12.83
2019-03-10T00:18:24.579Z,13.30
2019-03-10T00:20:55.557Z,14.17
2019-03-10T00:23:26.303Z,14.70
2019-03-10T00:25:57.181Z,12.77
2019-03-10T00:28:28.533Z,13.17
2019-03-10T00:30:59.027Z,13.37
2019-03-10T00:33:29.845Z,13.70
2019-03-10T00:36:00.226Z,13.03
2019-03-10T00:38:41.475Z,13.70
2019-03-10T00:41:43.063Z,14.00
2019-03-10T00:44:53.211Z,13.27
2019-03-10T00:47:59.869Z,14.50
2019-03-10T00:51:08.195Z,13.77
2019-03-10T00:53:39.427Z,14.37
2019-03-10T00:56:12.868Z,13.30
2019-03-10T00:58:43.600Z,14.30
2019-03-10T01:01:16.047Z,14.70
2019-03-10T01:03:46.681Z,14.27
2019-03-10T01:06:18.360Z,13.97
2019-03-10T01:08:49.207Z,14.10
2019-03-10T01:11:20.471Z,13.40
2019-03-10T01:13:51.743Z,14.07
2019-03-10T01:16:22.574Z,14.37
2019-03-10T01:18:56.171Z,14.60
2019-03-10T01:21:27.754Z,14.30
2019-03-10T01:23:58.539Z,13.80
2019-03-10T01:26:30.359Z,14.40
2019-03-10T01:29:02.308Z,14.30
2019-03-10T01:31:54.048Z,14.30
2019-03-10T01:35:15.467Z,13.97
2019-03-10T01:37:46.640Z,14.23
2019-03-10T01:40:17.309Z,14.63
2019-03-10T01:42:47.819Z,14.50
2019-03-10T01:45:18.315Z,13.80
2019-03-10T01:47:48.903Z,12.83
2019-03-10T01:50:19.811Z,13.30
2019-03-10T01:52:50.309Z,13.07
2019-03-10T01:55:20.824Z,13.67
2019-03-10T01:57:51.456Z,13.20
2019-03-10T02:00:21.947Z,15.03
2019-03-10T02:02:53.217Z,14.00
2019-03-10T02:05:24.499Z,14.07
2019-03-10T02:07:55.462Z,13.43
2019-03-10T02:10:26.371Z,14.87
2019-03-10T02:12:57.588Z,13.57
2019-03-10T02:15:28.743Z,13.63
2019-03-10T02:17:59.407Z,14.43
2019-03-10T02:20:30.681Z,14.07
2019-03-10T02:23:01.555Z,13.63
2019-03-10T02:25:32.611Z,12.77
2019-03-10T02:28:03.695Z,12.87
2019-03-10T02:30:34.464Z,12.67
2019-03-10T02:33:05.031Z,12.50
2019-03-10T02:35:35.694Z,12.63
2019-03-10T02:38:06.482Z,13.10
2019-03-10T02:40:36.923Z,12.90
2019-03-10T02:43:07.651Z,12.70
2019-03-10T02:45:38.127Z,11.87
2019-03-10T02:48:08.672Z,12.27
2019-03-10T02:50:39.383Z,12.33
2019-03-10T02:53:10.191Z,12.30
2019-03-10T02:55:41.242Z,12.27
2019-03-10T02:58:12.258Z,12.00
2019-03-10T03:00:42.778Z,12.17
2019-03-10T03:03:14.465Z,12.00
2019-03-10T03:05:45.100Z,12.83
2019-03-10T03:08:17.053Z,12.23
2019-03-10T03:10:47.810Z,13.13
2019-03-10T03:13:18.291Z,13.37
2019-03-10T03:15:48.971Z,12.73
2019-03-10T03:18:19.820Z,12.60
2019-03-10T03:20:50.990Z,12.10
2019-03-10T03:23:21.458Z,12.40
2019-03-10T03:25:52.773Z,12.50
2019-03-10T03:28:23.472Z,12.07
2019-03-10T03:30:53.930Z,11.47
2019-03-10T03:33:24.970Z,11.70
2019-03-10T03:35:57.249Z,11.60
2019-03-10T03:38:37.417Z,11.83
2019-03-10T03:41:12.235Z,10.77
2019-03-10T03:43:42.834Z,10.77
2019-03-10T03:46:13.522Z,12.10
2019-03-10T03:48:44.446Z,9.93
2019-03-10T03:51:15.075Z,10.00
2019-03-10T03:53:45.902Z,10.60
2019-03-10T03:56:16.458Z,10.87
2019-03-10T03:58:47.423Z,10.13
2019-03-10T04:01:23.028Z,10.20
2019-03-10T04:03:53.833Z,10.00
2019-03-10T04:06:24.126Z,10.40
2019-03-10T04:08:54.934Z,9.87
2019-03-10T04:11:25.931Z,10.73
2019-03-10T04:13:56.932Z,10.93
2019-03-10T04:16:28.505Z,10.80
2019-03-10T04:18:59.015Z,11.30
2019-03-10T04:21:30.052Z,11.60
2019-03-10T04:24:00.771Z,11.03
2019-03-10T04:26:31.341Z,11.07
2019-03-10T04:29:04.767Z,11.17
2019-03-10T04:31:35.469Z,11.60
2019-03-10T04:34:05.976Z,11.90
2019-03-10T04:36:36.489Z,11.43
2019-03-10T04:39:08.326Z,12.63
2019-03-10T04:41:38.831Z,11.63
2019-03-10T04:44:09.264Z,11.40
2019-03-10T04:46:39.691Z,11.47
2019-03-10T04:49:10.159Z,12.17
2019-03-10T04:51:40.931Z,12.20
2019-03-10T04:54:12.158Z,11.60
2019-03-10T04:57:07.016Z,11.43
2019-03-10T04:59:37.613Z,12.90
2019-03-10T05:02:08.178Z,12.40
2019-03-10T05:04:38.857Z,12.27
2019-03-10T05:07:09.724Z,11.53
2019-03-10T05:09:40.503Z,12.30
2019-03-10T05:12:11.141Z,11.83
2019-03-10T05:14:42.052Z,12.17
2019-03-10T05:17:13.411Z,12.20
2019-03-10T05:19:44.209Z,11.80
2019-03-10T05:22:15.487Z,11.90
2019-03-10T05:24:46.451Z,11.70
2019-03-10T05:27:17.113Z,11.70
2019-03-10T05:29:47.575Z,11.90
2019-03-10T05:32:18.279Z,12.50
2019-03-10T05:34:48.763Z,12.07
2019-03-10T05:37:19.184Z,13.30
2019-03-10T05:39:50.500Z,13.00
2019-03-10T05:42:21.494Z,12.40
2019-03-10T05:44:52.501Z,12.17
2019-03-10T05:47:23.367Z,13.67
2019-03-10T05:49:53.820Z,13.30
2019-03-10T05:52:24.631Z,13.40
2019-03-10T05:54:55.448Z,13.10
2019-03-10T05:57:26.490Z,12.63
2019-03-10T05:59:57.252Z,13.33
2019-03-10T06:02:28.109Z,13.50
2019-03-10T06:04:58.673Z,14.63
2019-03-10T06:07:29.136Z,13.53
2019-03-10T06:09:59.700Z,14.30
2019-03-10T06:12:31.098Z,13.17
2019-03-10T06:15:01.750Z,13.50
2019-03-10T06:17:32.931Z,13.57
2019-03-10T06:20:03.990Z,14.43
2019-03-10T06:22:34.994Z,14.10
2019-03-10T06:25:05.639Z,14.90
2019-03-10T06:27:36.788Z,14.03
2019-03-10T06:30:08.194Z,14.50
2019-03-10T06:32:39.175Z,15.30
2019-03-10T06:35:10.128Z,15.00
2019-03-10T06:37:41.059Z,15.00
2019-03-10T06:40:11.575Z,16.97
2019-03-10T06:42:42.320Z,14.57
2019-03-10T06:45:13.323Z,14.80
2019-03-10T06:47:44.452Z,15.53
2019-03-10T06:50:16.447Z,15.93
2019-03-10T06:52:47.495Z,16.43
2019-03-10T06:55:19.821Z,15.50
2019-03-10T06:57:50.535Z,16.03
2019-03-10T07:00:20.944Z,15.40
2019-03-10T07:02:51.780Z,14.70
2019-03-10T07:05:22.706Z,16.93
2019-03-10T07:07:53.912Z,16.13
2019-03-10T07:10:24.336Z,15.57
2019-03-10T07:12:54.853Z,17.00
2019-03-10T07:15:25.338Z,17.43
2019-03-10T07:17:56.214Z,16.43
2019-03-10T07:20:26.934Z,17.30
2019-03-10T07:22:57.854Z,16.77
2019-03-10T07:25:28.524Z,16.60
2019-03-10T07:28:16.737Z,17.60
2019-03-10T07:31:04.171Z,18.07
2019-03-10T07:33:44.731Z,17.17
2019-03-10T07:36:37.793Z,17.87
2019-03-10T07:39:15.970Z,18.30
2019-03-10T07:42:14.786Z,17.50
2019-03-10T07:45:11.175Z,17.80
2019-03-10T07:48:01.074Z,16.10
2019-03-10T07:50:51.187Z,19.00
2019-03-10T07:53:46.994Z,18.13
2019-03-10T07:56:36.072Z,18.30
2019-03-10T07:59:20.048Z,16.90
2019-03-10T08:02:15.427Z,17.70
2019-03-10T08:05:17.291Z,17.97
2019-03-10T08:07:56.087Z,17.77
2019-03-10T08:10:33.940Z,17.90
2019-03-10T08:13:27.028Z,17.63
2019-03-10T08:16:16.546Z,17.83
2019-03-10T08:19:15.001Z,18.40
2019-03-10T08:22:04.825Z,18.03
2019-03-10T08:24:47.387Z,18.57
2019-03-10T08:27:36.858Z,17.10
2019-03-10T08:30:25.508Z,19.17
2019-03-10T08:33:06.660Z,18.83
2019-03-10T08:36:13.879Z,19.33
2019-03-10T08:39:12.157Z,18.50
2019-03-10T08:41:53.310Z,19.60
2019-03-10T08:44:46.553Z,20.20
2019-03-10T08:47:24.861Z,19.67
2019-03-10T08:50:10.670Z,19.27
2019-03-10T08:52:58.180Z,20.23
2019-03-10T08:55:42.729Z,19.13
2019-03-10T08:58:32.983Z,19.30
2019-03-10T09:01:22.990Z,18.73
2019-03-10T09:04:18.630Z,18.33
2019-03-10T09:07:08.079Z,18.37
2019-03-10T09:10:04.722Z,17.83
2019-03-10T09:12:56.700Z,19.80
2019-03-10T09:15:52.894Z,19.07
2019-03-10T09:18:48.605Z,19.13
2019-03-10T09:21:44.383Z,22.67
2019-03-10T09:24:37.683Z,19.80
2019-03-10T09:27:28.378Z,21.20
2019-03-10T09:30:07.948Z,19.57
2019-03-10T09:33:03.365Z,19.73
2019-03-10T09:36:02.035Z,21.80
2019-03-10T09:38:42.741Z,20.80
2019-03-10T09:41:33.086Z,19.40
2019-03-10T09:44:23.698Z,19.93
2019-03-10T09:47:22.413Z,19.10
2019-03-10T09:50:12.094Z,19.60
2019-03-10T09:52:53.228Z,18.33
2019-03-10T09:55:52.047Z,19.40
2019-03-10T09:58:40.078Z,19.40
2019-03-10T10:01:20.925Z,20.20
2019-03-10T10:04:00.569Z,18.60
2019-03-10T10:06:47.107Z,19.97
2019-03-10T10:09:35.745Z,18.37
2019-03-10T10:12:19.670Z,18.73
2019-03-10T10:15:22.356Z,19.80
2019-03-10T10:18:11.651Z,19.47
2019-03-10T10:21:11.032Z,18.10
2019-03-10T10:23:56.816Z,19.37
2019-03-10T10:26:47.277Z,20.13
2019-03-10T10:29:35.690Z,20.67
2019-03-10T10:32:20.976Z,18.47
2019-03-10T10:35:28.959Z,21.50
2019-03-10T10:38:30.418Z,18.63
2019-03-10T10:41:22.731Z,22.03
2019-03-10T10:44:12.424Z,20.87
2019-03-10T10:46:50.539Z,24.93
2019-03-10T10:49:40.615Z,24.10
2019-03-10T10:52:33.062Z,24.97
2019-03-10T10:55:27.396Z,25.80
2019-03-10T10:58:19.978Z,26.63
2019-03-10T11:01:03.353Z,24.50
2019-03-10T11:03:56.028Z,25.07
2019-03-10T11:06:33.858Z,24.00
2019-03-10T11:09:24.186Z,23.43
2019-03-10T11:12:04.623Z,24.07
2019-03-10T11:14:57.178Z,25.07
2019-03-10T11:17:55.941Z,24.30
2019-03-10T11:20:56.363Z,24.40
2019-03-10T11:23:52.024Z,22.53
2019-03-10T11:26:39.501Z,23.17
2019-03-10T11:29:29.302Z,20.30
2019-03-10T11:32:13.623Z,23.10
2019-03-10T11:34:57.752Z,22.00
2019-03-10T11:37:50.546Z,20.90
2019-03-10T11:40:34.244Z,20.53
2019-03-10T11:43:36.979Z,22.50
2019-03-10T11:46:42.719Z,22.23
2019-03-10T11:49:45.185Z,20.80
2019-03-10T11:52:33.438Z,19.03
2019-03-10T11:55:13.706Z,21.07
2019-03-10T11:58:00.688Z,19.83
2019-03-10T12:00:42.301Z,22.63
2019-03-10T12:03:34.246Z,18.23
2019-03-10T12:06:18.961Z,17.73
2019-03-10T12:09:00.053Z,16.77
2019-03-10T12:11:30.523Z,18.17
2019-03-10T12:14:02.181Z,18.67
2019-03-10T12:16:33.506Z,18.40
2019-03-10T12:19:04.052Z,17.07
2019-03-10T12:21:34.987Z,18.57
2019-03-10T12:24:06.376Z,17.90
2019-03-10T12:26:36.771Z,23.47
2019-03-10T12:29:10.812Z,18.30
2019-03-10T12:31:41.192Z,19.63
2019-03-10T12:34:12.914Z,17.73
2019-03-10T12:36:43.385Z,16.60
2019-03-10T12:39:14.282Z,17.50
2019-03-10T12:41:44.926Z,17.97
2019-03-10T12:44:15.692Z,18.33
2019-03-10T12:46:46.715Z,18.43
2019-03-10T12:49:19.178Z,17.97
2019-03-10T12:51:50.648Z,19.57
2019-03-10T12:54:21.002Z,17.67
2019-03-10T12:56:52.386Z,15.23
2019-03-10T12:59:23.644Z,17.30
2019-03-10T13:01:55.237Z,15.20
2019-03-10T13:04:26.308Z,14.63
2019-03-10T13:06:57.650Z,14.77
2019-03-10T13:09:29.905Z,15.97
2019-03-10T13:12:02.610Z,13.97
2019-03-10T13:14:34.732Z,16.70
2019-03-10T13:17:06.268Z,13.93
2019-03-10T13:19:36.617Z,15.00
2019-03-10T13:22:07.096Z,14.63
2019-03-10T13:24:37.594Z,13.80
2019-03-10T13:27:08.280Z,14.10
2019-03-10T13:29:39.350Z,13.20
2019-03-10T13:32:12.566Z,13.03
2019-03-10T13:34:43.336Z,14.63
2019-03-10T13:37:13.967Z,12.70
2019-03-10T13:39:45.090Z,14.78
2019-03-10T13:42:15.564Z,13.33
2019-03-10T13:44:47.140Z,14.87
2019-03-10T13:47:17.418Z,14.03
2019-03-10T13:49:49.196Z,12.20
2019-03-10T13:52:19.701Z,13.93
2019-03-10T13:54:50.555Z,12.73
2019-03-10T13:57:22.112Z,12.00
2019-03-10T13:59:53.202Z,13.60
2019-03-10T14:02:24.022Z,13.03
2019-03-10T14:04:54.625Z,14.67
2019-03-10T14:07:26.074Z,13.37
2019-03-10T14:09:57.868Z,13.00
2019-03-10T14:12:29.472Z,14.07
2019-03-10T14:15:01.255Z,13.07
2019-03-10T14:17:32.293Z,12.90
2019-03-10T14:20:04.340Z,14.27
2019-03-10T14:22:36.686Z,13.47
2019-03-10T14:25:12.035Z,13.93
2019-03-10T14:27:44.860Z,13.37
2019-03-10T14:30:17.354Z,16.40
2019-03-10T14:32:48.782Z,14.63
2019-03-10T14:35:20.236Z,16.03
2019-03-10T14:37:52.752Z,15.57
2019-03-10T14:40:23.700Z,15.27
2019-03-10T14:42:55.100Z,15.27
2019-03-10T14:45:26.264Z,13.77
2019-03-10T14:47:57.636Z,14.00
2019-03-10T14:50:29.320Z,13.43
2019-03-10T14:53:00.916Z,13.73
2019-03-10T14:55:32.220Z,12.47
2019-03-10T14:58:03.560Z,11.67
2019-03-10T15:00:34.316Z,12.63
2019-03-10T15:03:05.971Z,11.67
2019-03-10T15:05:39.563Z,12.53
2019-03-10T15:08:10.502Z,13.17
2019-03-10T15:10:42.134Z,13.40
2019-03-10T15:13:12.993Z,12.70
2019-03-10T15:15:45.029Z,16.67
2019-03-10T15:18:15.991Z,18.50
2019-03-10T15:20:47.876Z,19.00
2019-03-10T15:23:20.304Z,19.30
2019-03-10T15:25:51.542Z,19.70
2019-03-10T15:28:23.492Z,18.97
2019-03-10T15:30:54.882Z,17.87
2019-03-10T15:33:25.982Z,21.30
2019-03-10T15:35:57.992Z,17.77
2019-03-10T15:38:29.795Z,16.80
2019-03-10T15:41:01.119Z,14.50
2019-03-10T15:43:32.186Z,16.83
2019-03-10T15:46:03.870Z,14.47
2019-03-10T15:48:35.242Z,15.10
2019-03-10T15:51:06.786Z,16.03
2019-03-10T15:53:37.674Z,18.73
2019-03-10T15:56:08.425Z,14.77
2019-03-10T15:58:40.592Z,17.17
2019-03-10T16:01:11.816Z,16.97
2019-03-10T16:03:42.798Z,18.63
2019-03-10T16:06:16.228Z,23.67
2019-03-10T16:09:08.294Z,27.30
2019-03-10T16:11:39.920Z,28.03
2019-03-10T16:14:11.436Z,30.77
2019-03-10T16:16:42.594Z,31.50
2019-03-10T16:19:14.278Z,35.30
2019-03-10T16:21:45.818Z,34.10
2019-03-10T16:24:17.058Z,34.40
2019-03-10T16:26:47.614Z,28.30
2019-03-10T16:29:18.091Z,27.43
2019-03-10T16:31:48.442Z,24.80
2019-03-10T16:34:19.012Z,26.33
2019-03-10T16:36:49.565Z,23.93
2019-03-10T16:39:20.700Z,25.53
2019-03-10T16:41:51.263Z,27.27
2019-03-10T16:44:21.882Z,24.83
2019-03-10T16:46:52.293Z,29.97
2019-03-10T16:49:25.333Z,26.73
2019-03-10T16:51:56.014Z,25.87
2019-03-10T16:54:26.444Z,25.10
2019-03-10T16:56:56.983Z,22.17
2019-03-10T16:59:27.396Z,27.70
2019-03-10T17:01:57.845Z,28.73
2019-03-10T17:04:28.343Z,26.00
2019-03-10T17:06:58.803Z,25.73
2019-03-10T17:09:29.237Z,22.90
2019-03-10T17:11:59.671Z,28.17
2019-03-10T17:14:30.517Z,28.17
2019-03-10T17:17:01.700Z,29.60
2019-03-10T17:19:33.365Z,29.33
2019-03-10T17:22:04.290Z,25.90
2019-03-10T17:24:35.481Z,26.17
2019-03-10T17:27:06.527Z,28.30
2019-03-10T17:29:37.416Z,22.87
2019-03-10T17:32:09.331Z,21.87
2019-03-10T17:34:41.361Z,23.07
2019-03-10T17:37:13.663Z,26.77
2019-03-10T17:39:44.758Z,21.90
2019-03-10T17:42:16.226Z,30.13
2019-03-10T17:44:47.010Z,22.67
2019-03-10T17:47:18.978Z,22.63
2019-03-10T17:49:51.069Z,26.80
2019-03-10T17:52:22.400Z,20.30
2019-03-10T17:54:53.126Z,18.23
2019-03-10T17:57:25.979Z,18.47
2019-03-10T17:59:58.415Z,20.43
2019-03-10T18:02:30.544Z,17.43
2019-03-10T18:05:02.120Z,18.20
2019-03-10T18:07:33.445Z,22.23
2019-03-10T18:10:05.197Z,17.33
2019-03-10T18:12:36.205Z,17.40
2019-03-10T18:15:09.320Z,27.20
2019-03-10T18:17:40.484Z,19.97
2019-03-10T18:20:13.899Z,16.63
2019-03-10T18:22:45.817Z,18.37
2019-03-10T18:25:16.632Z,18.33
2019-03-10T18:27:48.198Z,19.07
2019-03-10T18:30:20.586Z,16.90
2019-03-10T18:32:52.867Z,15.17
2019-03-10T18:35:24.286Z,12.50
2019-03-10T18:37:57.416Z,14.63
2019-03-10T18:40:28.390Z,12.47
2019-03-10T18:42:59.059Z,11.57
2019-03-10T18:45:29.790Z,8.23
2019-03-10T18:48:00.582Z,8.27
2019-03-10T18:50:32.626Z,8.00
2019-03-10T18:53:04.145Z,6.67
2019-03-10T18:55:34.720Z,6.33
2019-03-10T18:58:05.684Z,8.63
2019-03-10T19:00:36.709Z,5.47
2019-03-10T19:03:07.836Z,6.00
2019-03-10T19:05:39.172Z,6.60
2019-03-10T19:08:11.022Z,9.00
2019-03-10T19:10:42.060Z,8.07
2019-03-10T19:13:12.965Z,8.20
2019-03-10T19:15:45.254Z,9.57
2019-03-10T19:18:15.703Z,10.90
2019-03-10T19:20:46.208Z,9.30
2019-03-10T19:23:16.754Z,6.07
2019-03-10T19:25:47.280Z,8.63
2019-03-10T19:28:17.822Z,6.27
2019-03-10T19:30:48.249Z,6.90
2019-03-10T19:33:19.784Z,7.17
2019-03-10T19:35:51.269Z,6.60
2019-03-10T19:38:22.492Z,6.60
2019-03-10T19:40:53.857Z,8.50
2019-03-10T19:43:24.911Z,7.70
2019-03-10T19:45:56.192Z,7.30
2019-03-10T19:48:27.574Z,6.60
2019-03-10T19:51:00.381Z,5.97
2019-03-10T19:53:31.247Z,7.87
2019-03-10T19:56:03.974Z,7.30
2019-03-10T19:58:35.138Z,8.37
2019-03-10T20:01:05.705Z,8.57
2019-03-10T20:03:36.884Z,7.73
2019-03-10T20:06:07.445Z,9.23
2019-03-10T20:08:38.611Z,9.60
2019-03-10T20:11:10.280Z,9.00
2019-03-10T20:13:42.553Z,10.43
2019-03-10T20:16:12.992Z,9.77
2019-03-10T20:18:43.414Z,9.33
2019-03-10T20:21:13.992Z,10.50
2019-03-10T20:23:44.606Z,10.23
2019-03-10T20:26:16.699Z,11.43
2019-03-10T20:28:47.857Z,11.53
2019-03-10T20:31:18.297Z,11.97
2019-03-10T20:33:48.793Z,10.70
2019-03-10T20:36:19.770Z,12.43
2019-03-10T20:38:51.347Z,11.40
2019-03-10T20:41:21.883Z,10.33
2019-03-10T20:43:52.427Z,11.30
2019-03-10T20:46:22.903Z,12.53
2019-03-10T20:48:53.423Z,13.03
2019-03-10T20:51:24.518Z,12.53
2019-03-10T20:53:55.951Z,14.07
2019-03-10T20:56:26.436Z,13.60
2019-03-10T20:58:56.881Z,14.70
2019-03-10T21:01:27.516Z,14.23
2019-03-10T21:03:58.580Z,14.17
2019-03-10T21:06:30.243Z,14.83
2019-03-10T21:09:01.459Z,14.67
2019-03-10T21:11:33.499Z,14.40
2019-03-10T21:14:04.301Z,14.23
2019-03-10T21:16:36.712Z,15.70
2019-03-10T21:19:08.678Z,15.93
2019-03-10T21:21:41.258Z,15.97
2019-03-10T21:24:12.952Z,14.97
2019-03-10T21:26:43.973Z,15.40
2019-03-10T21:29:15.172Z,15.70
2019-03-10T21:31:46.773Z,15.43
2019-03-10T21:34:17.413Z,15.10
2019-03-10T21:36:48.777Z,15.80
2019-03-10T21:39:20.338Z,16.33
2019-03-10T21:41:51.598Z,15.87
2019-03-10T21:44:26.462Z,16.03
2019-03-10T21:46:55.276Z,16.33
2019-03-10T21:49:26.186Z,15.03
2019-03-10T21:51:57.773Z,15.80
2019-03-10T21:54:29.263Z,15.30
2019-03-10T21:57:00.070Z,15.60
2019-03-10T21:59:30.902Z,15.23
2019-03-10T22:02:01.658Z,15.70
2019-03-10T22:04:32.235Z,16.00
2019-03-10T22:07:03.513Z,15.97
2019-03-10T22:09:34.294Z,15.60
2019-03-10T22:12:04.968Z,15.77
2019-03-10T22:14:36.273Z,15.07
2019-03-10T22:17:07.078Z,14.90
2019-03-10T22:19:37.810Z,15.27
2019-03-10T22:22:09.813Z,15.00
2019-03-10T22:24:40.902Z,15.70
2019-03-10T22:27:11.581Z,15.63
2019-03-10T22:29:42.148Z,15.33
2019-03-10T22:32:13.169Z,15.27
2019-03-10T22:34:43.997Z,14.90
2019-03-10T22:37:15.476Z,15.70
2019-03-10T22:39:46.020Z,15.50
2019-03-10T22:42:16.493Z,16.00
2019-03-10T22:44:47.143Z,15.73
2019-03-10T22:47:17.582Z,16.60
2019-03-10T22:49:48.625Z,16.17
2019-03-10T22:52:19.008Z,15.97
2019-03-10T22:54:49.638Z,15.40
2019-03-10T22:57:20.404Z,15.80
2019-03-10T22:59:51.518Z,15.50
2019-03-10T23:02:22.313Z,15.20
2019-03-10T23:04:53.156Z,15.43
2019-03-10T23:07:23.928Z,15.70
2019-03-10T23:09:54.902Z,15.77
2019-03-10T23:12:25.425Z,16.13
2019-03-10T23:14:56.345Z,15.30
2019-03-10T23:17:26.877Z,15.30
2019-03-10T23:19:57.940Z,15.33
2019-03-10T23:22:28.547Z,15.50
2019-03-10T23:25:01.617Z,15.97
2019-03-10T23:27:33.130Z,14.97
2019-03-10T23:30:03.515Z,15.00
2019-03-10T23:32:33.928Z,14.93
2019-03-10T23:35:04.730Z,14.57
2019-03-10T23:37:35.498Z,13.60
2019-03-10T23:40:06.221Z,11.97
2019-03-10T23:42:37.041Z,10.30
2019-03-10T23:45:08.414Z,9.80
2019-03-10T23:47:38.797Z,10.60
2019-03-10T23:50:10.570Z,9.90
2019-03-10T23:52:41.642Z,11.00
2019-03-10T23:55:12.781Z,9.30
2019-03-10T23:57:43.807Z,8.50
